sensor_id;sensor_type;location;lat;lon;timestamp;temperature;humidity
52211;DHT22;38179;52.756;6.906;2023-02-03T00:01:03;7.70;99.90
52211;DHT22;38179;52.756;6.906;2023-02-03T00:03:29;7.70;99.90
52211;DHT22;38179;52.756;6.906;2023-02-03T00:05:55;7.70;99.90
52211;DHT22;38179;52.756;6.906;2023-02-03T00:08:21;7.70;99.90
52211;DHT22;38179;52.756;6.906;2023-02-03T00:10:48;7.70;99.90
52211;DHT22;38179;52.756;6.906;2023-02-03T00:13:14;7.70;99.90
52211;DHT22;38179;52.756;6.906;2023-02-03T00:15:40;7.70;99.90
52211;DHT22;38179;52.756;6.906;2023-02-03T00:18:06;7.80;99.90
52211;DHT22;38179;52.756;6.906;2023-02-03T00:20:32;7.80;99.90
52211;DHT22;38179;52.756;6.906;2023-02-03T00:23:06;7.80;99.90
52211;DHT22;38179;52.756;6.906;2023-02-03T00:25:32;7.80;99.90
52211;DHT22;38179;52.756;6.906;2023-02-03T00:27:58;7.90;99.90
52211;DHT22;38179;52.756;6.906;2023-02-03T00:30:24;7.90;99.90
52211;DHT22;38179;52.756;6.906;2023-02-03T00:32:50;7.90;99.90
52211;DHT22;38179;52.756;6.906;2023-02-03T00:35:17;7.90;99.90
52211;DHT22;38179;52.756;6.906;2023-02-03T00:37:42;7.90;99.90
52211;DHT22;38179;52.756;6.906;2023-02-03T00:40:09;8.00;99.90
52211;DHT22;38179;52.756;6.906;2023-02-03T00:42:35;8.00;99.90
52211;DHT22;38179;52.756;6.906;2023-02-03T00:45:01;7.90;99.90
52211;DHT22;38179;52.756;6.906;2023-02-03T00:47:28;7.90;99.90
52211;DHT22;38179;52.756;6.906;2023-02-03T00:49:53;7.90;99.90
52211;DHT22;38179;52.756;6.906;2023-02-03T00:52:19;8.00;99.90
52211;DHT22;38179;52.756;6.906;2023-02-03T00:54:45;8.00;99.90
52211;DHT22;38179;52.756;6.906;2023-02-03T00:57:11;8.00;99.90
52211;DHT22;38179;52.756;6.906;2023-02-03T00:59:37;8.00;99.90
52211;DHT22;38179;52.756;6.906;2023-02-03T01:02:03;8.00;99.90
52211;DHT22;38179;52.756;6.906;2023-02-03T01:04:29;8.00;99.90
52211;DHT22;38179;52.756;6.906;2023-02-03T01:06:55;8.00;99.90
52211;DHT22;38179;52.756;6.906;2023-02-03T01:09:23;8.00;99.90
52211;DHT22;38179;52.756;6.906;2023-02-03T01:11:49;8.00;99.90
52211;DHT22;38179;52.756;6.906;2023-02-03T01:14:15;8.00;99.90
52211;DHT22;38179;52.756;6.906;2023-02-03T01:16:41;8.00;99.90
52211;DHT22;38179;52.756;6.906;2023-02-03T01:19:06;7.90;99.90
52211;DHT22;38179;52.756;6.906;2023-02-03T01:21:33;8.00;99.90
52211;DHT22;38179;52.756;6.906;2023-02-03T01:24:01;8.00;99.90
52211;DHT22;38179;52.756;6.906;2023-02-03T01:26:27;8.00;99.90
52211;DHT22;38179;52.756;6.906;2023-02-03T01:28:55;8.00;99.90
52211;DHT22;38179;52.756;6.906;2023-02-03T01:31:24;8.00;99.90
52211;DHT22;38179;52.756;6.906;2023-02-03T01:33:52;8.00;99.90
52211;DHT22;38179;52.756;6.906;2023-02-03T01:36:21;8.00;99.90
52211;DHT22;38179;52.756;6.906;2023-02-03T01:38:47;8.00;99.90
52211;DHT22;38179;52.756;6.906;2023-02-03T01:41:16;8.00;99.90
52211;DHT22;38179;52.756;6.906;2023-02-03T01:43:48;8.00;99.90
52211;DHT22;38179;52.756;6.906;2023-02-03T01:46:24;8.00;99.90
52211;DHT22;38179;52.756;6.906;2023-02-03T01:48:55;8.00;99.90
52211;DHT22;38179;52.756;6.906;2023-02-03T01:51:23;8.10;99.90
52211;DHT22;38179;52.756;6.906;2023-02-03T01:53:50;8.10;99.90
52211;DHT22;38179;52.756;6.906;2023-02-03T01:56:17;8.00;99.90
52211;DHT22;38179;52.756;6.906;2023-02-03T01:58:45;8.00;99.90
52211;DHT22;38179;52.756;6.906;2023-02-03T02:01:11;8.00;99.90
52211;DHT22;38179;52.756;6.906;2023-02-03T02:06:10;8.00;99.90
52211;DHT22;38179;52.756;6.906;2023-02-03T02:08:36;8.00;99.90
52211;DHT22;38179;52.756;6.906;2023-02-03T02:11:03;8.00;99.90
52211;DHT22;38179;52.756;6.906;2023-02-03T02:13:34;8.00;99.90
52211;DHT22;38179;52.756;6.906;2023-02-03T02:16:15;8.00;99.90
52211;DHT22;38179;52.756;6.906;2023-02-03T02:21:47;8.00;99.90
52211;DHT22;38179;52.756;6.906;2023-02-03T02:29:27;8.00;99.90
52211;DHT22;38179;52.756;6.906;2023-02-03T02:32:15;8.00;99.90
52211;DHT22;38179;52.756;6.906;2023-02-03T02:39:55;8.00;99.90
52211;DHT22;38179;52.756;6.906;2023-02-03T02:45:07;8.00;99.90
52211;DHT22;38179;52.756;6.906;2023-02-03T02:47:35;7.90;99.90
52211;DHT22;38179;52.756;6.906;2023-02-03T02:50:05;8.00;99.90
52211;DHT22;38179;52.756;6.906;2023-02-03T02:52:36;8.00;99.90
52211;DHT22;38179;52.756;6.906;2023-02-03T02:55:13;7.90;99.90
52211;DHT22;38179;52.756;6.906;2023-02-03T02:57:41;8.00;99.90
52211;DHT22;38179;52.756;6.906;2023-02-03T03:00:08;7.90;99.90
52211;DHT22;38179;52.756;6.906;2023-02-03T03:02:35;7.90;99.90
52211;DHT22;38179;52.756;6.906;2023-02-03T03:05:11;7.90;99.90
52211;DHT22;38179;52.756;6.906;2023-02-03T03:07:45;7.90;99.90
52211;DHT22;38179;52.756;6.906;2023-02-03T03:10:15;7.90;99.90
52211;DHT22;38179;52.756;6.906;2023-02-03T03:12:48;7.90;99.90
52211;DHT22;38179;52.756;6.906;2023-02-03T03:15:21;8.00;99.90
52211;DHT22;38179;52.756;6.906;2023-02-03T03:18:02;8.00;99.90
52211;DHT22;38179;52.756;6.906;2023-02-03T03:20:31;8.00;99.90
52211;DHT22;38179;52.756;6.906;2023-02-03T03:23:04;7.90;99.90
52211;DHT22;38179;52.756;6.906;2023-02-03T03:25:37;7.90;99.90
52211;DHT22;38179;52.756;6.906;2023-02-03T03:28:14;8.00;99.90
52211;DHT22;38179;52.756;6.906;2023-02-03T03:30:40;8.00;99.90
52211;DHT22;38179;52.756;6.906;2023-02-03T03:33:07;8.00;99.90
52211;DHT22;38179;52.756;6.906;2023-02-03T03:36:11;8.00;99.90
52211;DHT22;38179;52.756;6.906;2023-02-03T03:38:45;8.00;99.90
52211;DHT22;38179;52.756;6.906;2023-02-03T03:44:01;8.10;99.90
52211;DHT22;38179;52.756;6.906;2023-02-03T03:46:37;8.10;99.90
52211;DHT22;38179;52.756;6.906;2023-02-03T03:49:05;8.10;99.90
52211;DHT22;38179;52.756;6.906;2023-02-03T03:51:42;8.10;99.90
52211;DHT22;38179;52.756;6.906;2023-02-03T03:54:16;8.10;99.90
52211;DHT22;38179;52.756;6.906;2023-02-03T03:57:13;8.10;99.90
52211;DHT22;38179;52.756;6.906;2023-02-03T03:59:44;8.10;99.90
52211;DHT22;38179;52.756;6.906;2023-02-03T04:02:12;8.10;99.90
52211;DHT22;38179;52.756;6.906;2023-02-03T04:04:39;8.10;99.90
52211;DHT22;38179;52.756;6.906;2023-02-03T04:07:06;8.10;99.90
52211;DHT22;38179;52.756;6.906;2023-02-03T04:09:31;8.20;99.90
52211;DHT22;38179;52.756;6.906;2023-02-03T04:12:01;8.20;99.90
52211;DHT22;38179;52.756;6.906;2023-02-03T04:14:29;8.10;99.90
52211;DHT22;38179;52.756;6.906;2023-02-03T04:16:55;8.20;99.90
52211;DHT22;38179;52.756;6.906;2023-02-03T04:19:22;8.20;99.90
52211;DHT22;38179;52.756;6.906;2023-02-03T04:21:48;8.10;99.90
52211;DHT22;38179;52.756;6.906;2023-02-03T04:24:13;8.10;99.90
52211;DHT22;38179;52.756;6.906;2023-02-03T04:26:39;8.20;99.90
52211;DHT22;38179;52.756;6.906;2023-02-03T04:29:05;8.10;99.90
52211;DHT22;38179;52.756;6.906;2023-02-03T04:31:31;8.10;99.90
52211;DHT22;38179;52.756;6.906;2023-02-03T04:33:57;8.10;99.90
52211;DHT22;38179;52.756;6.906;2023-02-03T04:36:23;8.10;99.90
52211;DHT22;38179;52.756;6.906;2023-02-03T04:38:49;8.10;99.90
52211;DHT22;38179;52.756;6.906;2023-02-03T04:41:15;8.20;99.90
52211;DHT22;38179;52.756;6.906;2023-02-03T04:43:41;8.10;99.90
52211;DHT22;38179;52.756;6.906;2023-02-03T04:46:07;8.20;99.90
52211;DHT22;38179;52.756;6.906;2023-02-03T04:48:33;8.20;99.90
52211;DHT22;38179;52.756;6.906;2023-02-03T04:51:06;8.20;99.90
52211;DHT22;38179;52.756;6.906;2023-02-03T04:53:33;8.20;99.90
52211;DHT22;38179;52.756;6.906;2023-02-03T04:55:59;8.30;99.90
52211;DHT22;38179;52.756;6.906;2023-02-03T04:58:25;8.30;99.90
52211;DHT22;38179;52.756;6.906;2023-02-03T05:00:52;8.20;99.90
52211;DHT22;38179;52.756;6.906;2023-02-03T05:03:18;8.20;99.90
52211;DHT22;38179;52.756;6.906;2023-02-03T05:05:44;8.30;99.90
52211;DHT22;38179;52.756;6.906;2023-02-03T05:08:10;8.30;99.90
52211;DHT22;38179;52.756;6.906;2023-02-03T05:10:36;8.30;99.90
52211;DHT22;38179;52.756;6.906;2023-02-03T05:13:02;8.20;99.90
52211;DHT22;38179;52.756;6.906;2023-02-03T05:15:28;8.20;99.90
52211;DHT22;38179;52.756;6.906;2023-02-03T05:17:54;8.20;99.90
52211;DHT22;38179;52.756;6.906;2023-02-03T05:20:20;8.20;99.90
52211;DHT22;38179;52.756;6.906;2023-02-03T05:22:46;8.20;99.90
52211;DHT22;38179;52.756;6.906;2023-02-03T05:25:13;8.20;99.90
52211;DHT22;38179;52.756;6.906;2023-02-03T05:27:40;8.20;99.90
52211;DHT22;38179;52.756;6.906;2023-02-03T05:30:07;8.20;99.90
52211;DHT22;38179;52.756;6.906;2023-02-03T05:32:34;8.20;99.90
52211;DHT22;38179;52.756;6.906;2023-02-03T05:35:00;8.30;99.90
52211;DHT22;38179;52.756;6.906;2023-02-03T05:37:26;8.20;99.90
52211;DHT22;38179;52.756;6.906;2023-02-03T05:39:52;8.20;99.90
52211;DHT22;38179;52.756;6.906;2023-02-03T05:42:18;8.20;99.90
52211;DHT22;38179;52.756;6.906;2023-02-03T05:44:44;8.20;99.90
52211;DHT22;38179;52.756;6.906;2023-02-03T05:47:09;8.30;99.90
52211;DHT22;38179;52.756;6.906;2023-02-03T05:49:35;8.30;99.90
52211;DHT22;38179;52.756;6.906;2023-02-03T05:52:01;8.30;99.90
52211;DHT22;38179;52.756;6.906;2023-02-03T05:54:28;8.30;99.90
52211;DHT22;38179;52.756;6.906;2023-02-03T05:56:56;8.20;99.90
52211;DHT22;38179;52.756;6.906;2023-02-03T05:59:22;8.30;99.90
52211;DHT22;38179;52.756;6.906;2023-02-03T06:01:48;8.20;99.90
52211;DHT22;38179;52.756;6.906;2023-02-03T06:04:14;8.30;99.90
52211;DHT22;38179;52.756;6.906;2023-02-03T06:06:41;8.20;99.90
52211;DHT22;38179;52.756;6.906;2023-02-03T06:28:59;8.10;99.90
52211;DHT22;38179;52.756;6.906;2023-02-03T06:31:25;8.20;99.90
52211;DHT22;38179;52.756;6.906;2023-02-03T06:33:51;8.20;99.90
52211;DHT22;38179;52.756;6.906;2023-02-03T06:36:17;8.20;99.90
52211;DHT22;38179;52.756;6.906;2023-02-03T06:38:43;8.20;99.90
52211;DHT22;38179;52.756;6.906;2023-02-03T06:41:09;8.20;99.90
52211;DHT22;38179;52.756;6.906;2023-02-03T06:43:35;8.20;99.90
52211;DHT22;38179;52.756;6.906;2023-02-03T06:46:01;8.20;99.90
52211;DHT22;38179;52.756;6.906;2023-02-03T06:48:27;8.20;99.90
52211;DHT22;38179;52.756;6.906;2023-02-03T06:50:53;8.30;99.90
52211;DHT22;38179;52.756;6.906;2023-02-03T06:53:19;8.30;99.90
52211;DHT22;38179;52.756;6.906;2023-02-03T06:55:45;8.30;99.90
52211;DHT22;38179;52.756;6.906;2023-02-03T06:58:12;8.30;99.90
52211;DHT22;38179;52.756;6.906;2023-02-03T07:00:38;8.40;99.90
52211;DHT22;38179;52.756;6.906;2023-02-03T07:03:04;8.40;99.90
52211;DHT22;38179;52.756;6.906;2023-02-03T07:05:30;8.40;99.90
52211;DHT22;38179;52.756;6.906;2023-02-03T07:07:56;8.50;99.90
52211;DHT22;38179;52.756;6.906;2023-02-03T07:10:22;8.50;99.90
52211;DHT22;38179;52.756;6.906;2023-02-03T07:12:48;8.50;99.90
52211;DHT22;38179;52.756;6.906;2023-02-03T07:15:15;8.50;99.90
52211;DHT22;38179;52.756;6.906;2023-02-03T07:17:41;8.50;99.90
52211;DHT22;38179;52.756;6.906;2023-02-03T07:20:07;8.50;99.90
52211;DHT22;38179;52.756;6.906;2023-02-03T07:22:33;8.50;99.90
52211;DHT22;38179;52.756;6.906;2023-02-03T07:25:01;8.50;99.90
52211;DHT22;38179;52.756;6.906;2023-02-03T07:27:27;8.50;99.90
52211;DHT22;38179;52.756;6.906;2023-02-03T07:29:54;8.50;99.90
52211;DHT22;38179;52.756;6.906;2023-02-03T07:32:20;8.60;99.90
52211;DHT22;38179;52.756;6.906;2023-02-03T07:34:46;8.60;99.90
52211;DHT22;38179;52.756;6.906;2023-02-03T07:37:12;8.60;99.90
52211;DHT22;38179;52.756;6.906;2023-02-03T07:39:37;8.60;99.90
52211;DHT22;38179;52.756;6.906;2023-02-03T07:42:03;8.60;99.90
52211;DHT22;38179;52.756;6.906;2023-02-03T07:44:29;8.60;99.90
52211;DHT22;38179;52.756;6.906;2023-02-03T07:46:55;8.60;99.90
52211;DHT22;38179;52.756;6.906;2023-02-03T07:49:22;8.50;99.90
52211;DHT22;38179;52.756;6.906;2023-02-03T07:51:48;8.50;99.90
52211;DHT22;38179;52.756;6.906;2023-02-03T07:54:13;8.50;99.90
52211;DHT22;38179;52.756;6.906;2023-02-03T07:56:41;8.50;99.90
52211;DHT22;38179;52.756;6.906;2023-02-03T07:59:07;8.40;99.90
52211;DHT22;38179;52.756;6.906;2023-02-03T08:01:33;8.40;99.90
52211;DHT22;38179;52.756;6.906;2023-02-03T08:03:59;8.40;99.90
52211;DHT22;38179;52.756;6.906;2023-02-03T08:06:26;8.40;99.90
52211;DHT22;38179;52.756;6.906;2023-02-03T08:08:55;8.40;99.90
52211;DHT22;38179;52.756;6.906;2023-02-03T08:11:21;8.50;99.90
52211;DHT22;38179;52.756;6.906;2023-02-03T08:13:47;8.50;99.90
52211;DHT22;38179;52.756;6.906;2023-02-03T08:16:12;8.40;99.90
52211;DHT22;38179;52.756;6.906;2023-02-03T08:18:38;8.50;99.90
52211;DHT22;38179;52.756;6.906;2023-02-03T08:21:04;8.50;99.90
52211;DHT22;38179;52.756;6.906;2023-02-03T08:23:31;8.50;99.90
52211;DHT22;38179;52.756;6.906;2023-02-03T08:25:57;8.50;99.90
52211;DHT22;38179;52.756;6.906;2023-02-03T08:28:23;8.40;99.90
52211;DHT22;38179;52.756;6.906;2023-02-03T08:30:49;8.40;99.90
52211;DHT22;38179;52.756;6.906;2023-02-03T08:33:15;8.40;99.90
52211;DHT22;38179;52.756;6.906;2023-02-03T08:35:46;8.40;99.90
52211;DHT22;38179;52.756;6.906;2023-02-03T08:38:12;8.40;99.90
52211;DHT22;38179;52.756;6.906;2023-02-03T08:40:38;8.40;99.90
52211;DHT22;38179;52.756;6.906;2023-02-03T08:43:04;8.40;99.90
52211;DHT22;38179;52.756;6.906;2023-02-03T08:45:30;8.40;99.90
52211;DHT22;38179;52.756;6.906;2023-02-03T08:47:56;8.50;99.90
52211;DHT22;38179;52.756;6.906;2023-02-03T08:50:22;8.50;99.90
52211;DHT22;38179;52.756;6.906;2023-02-03T08:52:48;8.50;99.90
52211;DHT22;38179;52.756;6.906;2023-02-03T08:55:14;8.50;99.90
52211;DHT22;38179;52.756;6.906;2023-02-03T08:57:40;8.50;99.90
52211;DHT22;38179;52.756;6.906;2023-02-03T09:00:07;8.50;99.90
52211;DHT22;38179;52.756;6.906;2023-02-03T09:02:34;8.50;99.90
52211;DHT22;38179;52.756;6.906;2023-02-03T09:05:00;8.50;99.90
52211;DHT22;38179;52.756;6.906;2023-02-03T09:07:26;8.50;99.90
52211;DHT22;38179;52.756;6.906;2023-02-03T09:09:52;8.50;99.90
52211;DHT22;38179;52.756;6.906;2023-02-03T09:12:18;8.50;99.90
52211;DHT22;38179;52.756;6.906;2023-02-03T09:14:44;8.50;99.90
52211;DHT22;38179;52.756;6.906;2023-02-03T09:17:10;8.50;99.90
52211;DHT22;38179;52.756;6.906;2023-02-03T09:19:36;8.50;99.90
52211;DHT22;38179;52.756;6.906;2023-02-03T09:22:03;8.50;99.90
52211;DHT22;38179;52.756;6.906;2023-02-03T09:24:29;8.50;99.90
52211;DHT22;38179;52.756;6.906;2023-02-03T09:26:56;8.50;99.90
52211;DHT22;38179;52.756;6.906;2023-02-03T09:29:22;8.50;99.90
52211;DHT22;38179;52.756;6.906;2023-02-03T09:31:48;8.50;99.90
52211;DHT22;38179;52.756;6.906;2023-02-03T09:34:18;8.50;99.90
52211;DHT22;38179;52.756;6.906;2023-02-03T09:36:45;8.40;99.90
52211;DHT22;38179;52.756;6.906;2023-02-03T09:39:11;8.50;99.90
52211;DHT22;38179;52.756;6.906;2023-02-03T09:42:42;8.50;99.90
52211;DHT22;38179;52.756;6.906;2023-02-03T09:47:31;8.50;99.90
52211;DHT22;38179;52.756;6.906;2023-02-03T09:50:05;8.60;99.90
52211;DHT22;38179;52.756;6.906;2023-02-03T09:52:38;8.60;99.90
52211;DHT22;38179;52.756;6.906;2023-02-03T09:57:46;8.70;99.90
52211;DHT22;38179;52.756;6.906;2023-02-03T10:00:22;8.70;99.90
52211;DHT22;38179;52.756;6.906;2023-02-03T10:10:51;8.90;99.90
52211;DHT22;38179;52.756;6.906;2023-02-03T10:16:27;8.90;99.90
52211;DHT22;38179;52.756;6.906;2023-02-03T10:19:00;8.90;99.90
52211;DHT22;38179;52.756;6.906;2023-02-03T10:21:46;8.90;99.90
52211;DHT22;38179;52.756;6.906;2023-02-03T10:24:19;8.90;99.90
52211;DHT22;38179;52.756;6.906;2023-02-03T10:26:46;9.00;99.90
52211;DHT22;38179;52.756;6.906;2023-02-03T10:31:44;9.00;99.90
52211;DHT22;38179;52.756;6.906;2023-02-03T10:34:16;9.00;99.90
52211;DHT22;38179;52.756;6.906;2023-02-03T10:39:52;9.00;99.90
52211;DHT22;38179;52.756;6.906;2023-02-03T10:42:19;9.00;99.90
52211;DHT22;38179;52.756;6.906;2023-02-03T10:44:56;9.00;99.90
52211;DHT22;38179;52.756;6.906;2023-02-03T10:47:26;9.00;99.90
52211;DHT22;38179;52.756;6.906;2023-02-03T10:49:55;9.00;99.90
52211;DHT22;38179;52.756;6.906;2023-02-03T10:52:26;9.00;99.90
52211;DHT22;38179;52.756;6.906;2023-02-03T10:54:52;9.00;99.90
52211;DHT22;38179;52.756;6.906;2023-02-03T10:57:20;9.00;99.90
52211;DHT22;38179;52.756;6.906;2023-02-03T10:59:48;9.00;99.90
52211;DHT22;38179;52.756;6.906;2023-02-03T11:02:24;9.00;99.90
52211;DHT22;38179;52.756;6.906;2023-02-03T11:05:18;9.00;99.90
52211;DHT22;38179;52.756;6.906;2023-02-03T11:07:45;9.00;99.90
52211;DHT22;38179;52.756;6.906;2023-02-03T11:13:21;9.00;99.90
52211;DHT22;38179;52.756;6.906;2023-02-03T11:16:02;9.00;99.90
52211;DHT22;38179;52.756;6.906;2023-02-03T11:18:54;9.00;99.90
52211;DHT22;38179;52.756;6.906;2023-02-03T11:21:23;9.00;99.90
52211;DHT22;38179;52.756;6.906;2023-02-03T11:24:20;9.00;99.90
52211;DHT22;38179;52.756;6.906;2023-02-03T11:31:51;9.00;99.90
52211;DHT22;38179;52.756;6.906;2023-02-03T11:34:30;9.00;99.90
52211;DHT22;38179;52.756;6.906;2023-02-03T11:36:57;9.00;99.90
52211;DHT22;38179;52.756;6.906;2023-02-03T11:39:30;9.00;99.90
52211;DHT22;38179;52.756;6.906;2023-02-03T11:42:00;8.90;99.90
52211;DHT22;38179;52.756;6.906;2023-02-03T11:44:28;8.90;99.90
52211;DHT22;38179;52.756;6.906;2023-02-03T11:47:06;8.90;99.90
52211;DHT22;38179;52.756;6.906;2023-02-03T11:49:38;8.90;99.90
52211;DHT22;38179;52.756;6.906;2023-02-03T11:55:06;8.90;99.90
52211;DHT22;38179;52.756;6.906;2023-02-03T11:57:58;9.00;99.90
52211;DHT22;38179;52.756;6.906;2023-02-03T12:00:58;9.00;99.90
52211;DHT22;38179;52.756;6.906;2023-02-03T12:06:50;8.90;99.90
52211;DHT22;38179;52.756;6.906;2023-02-03T12:15:11;8.90;99.90
52211;DHT22;38179;52.756;6.906;2023-02-03T12:18:07;8.90;99.90
52211;DHT22;38179;52.756;6.906;2023-02-03T12:23:29;8.90;99.90
52211;DHT22;38179;52.756;6.906;2023-02-03T12:26:23;8.80;99.90
52211;DHT22;38179;52.756;6.906;2023-02-03T12:29:07;8.90;99.90
52211;DHT22;38179;52.756;6.906;2023-02-03T12:31:38;8.90;99.90
52211;DHT22;38179;52.756;6.906;2023-02-03T12:34:24;8.90;99.90
52211;DHT22;38179;52.756;6.906;2023-02-03T12:37:16;8.90;99.90
52211;DHT22;38179;52.756;6.906;2023-02-03T12:39:47;8.90;99.90
52211;DHT22;38179;52.756;6.906;2023-02-03T12:42:22;8.90;99.90
52211;DHT22;38179;52.756;6.906;2023-02-03T12:45:15;8.90;99.90
52211;DHT22;38179;52.756;6.906;2023-02-03T12:47:55;8.90;99.90
52211;DHT22;38179;52.756;6.906;2023-02-03T12:50:37;8.90;99.90
52211;DHT22;38179;52.756;6.906;2023-02-03T12:53:30;8.90;99.90
52211;DHT22;38179;52.756;6.906;2023-02-03T12:56:11;8.90;99.90
52211;DHT22;38179;52.756;6.906;2023-02-03T12:58:46;8.80;99.90
52211;DHT22;38179;52.756;6.906;2023-02-03T13:03:54;8.80;99.90
52211;DHT22;38179;52.756;6.906;2023-02-03T13:06:41;8.80;99.90
52211;DHT22;38179;52.756;6.906;2023-02-03T13:14:41;8.70;99.90
52211;DHT22;38179;52.756;6.906;2023-02-03T13:17:23;8.70;99.90
52211;DHT22;38179;52.756;6.906;2023-02-03T13:19:56;8.60;99.90
52211;DHT22;38179;52.756;6.906;2023-02-03T13:22:24;8.60;99.90
52211;DHT22;38179;52.756;6.906;2023-02-03T13:25:03;8.60;99.90
52211;DHT22;38179;52.756;6.906;2023-02-03T13:38:32;8.50;99.90
52211;DHT22;38179;52.756;6.906;2023-02-03T13:41:08;8.50;99.90
52211;DHT22;38179;52.756;6.906;2023-02-03T13:43:40;8.50;99.90
52211;DHT22;38179;52.756;6.906;2023-02-03T13:46:22;8.50;99.90
52211;DHT22;38179;52.756;6.906;2023-02-03T13:48:49;8.50;99.90
52211;DHT22;38179;52.756;6.906;2023-02-03T13:51:27;8.50;99.90
52211;DHT22;38179;52.756;6.906;2023-02-03T13:54:07;8.50;99.90
52211;DHT22;38179;52.756;6.906;2023-02-03T13:56:38;8.50;99.90
52211;DHT22;38179;52.756;6.906;2023-02-03T13:59:25;8.50;99.90
52211;DHT22;38179;52.756;6.906;2023-02-03T14:07:34;8.50;99.90
52211;DHT22;38179;52.756;6.906;2023-02-03T14:17:55;8.50;99.90
52211;DHT22;38179;52.756;6.906;2023-02-03T14:25:36;8.40;99.90
52211;DHT22;38179;52.756;6.906;2023-02-03T14:28:11;8.50;99.90
52211;DHT22;38179;52.756;6.906;2023-02-03T14:31:19;8.40;99.90
52211;DHT22;38179;52.756;6.906;2023-02-03T14:34:05;8.40;99.90
52211;DHT22;38179;52.756;6.906;2023-02-03T14:36:39;8.40;99.90
52211;DHT22;38179;52.756;6.906;2023-02-03T14:59:17;8.30;99.90
52211;DHT22;38179;52.756;6.906;2023-02-03T15:09:45;8.20;99.90
52211;DHT22;38179;52.756;6.906;2023-02-03T15:12:17;8.20;99.90
52211;DHT22;38179;52.756;6.906;2023-02-03T15:14:43;8.20;99.90
52211;DHT22;38179;52.756;6.906;2023-02-03T15:17:23;8.20;99.90
52211;DHT22;38179;52.756;6.906;2023-02-03T15:19:49;8.20;99.90
52211;DHT22;38179;52.756;6.906;2023-02-03T15:22:27;8.10;99.90
52211;DHT22;38179;52.756;6.906;2023-02-03T15:24:58;8.10;99.90
52211;DHT22;38179;52.756;6.906;2023-02-03T15:27:29;8.10;99.90
52211;DHT22;38179;52.756;6.906;2023-02-03T15:29:55;8.10;99.90
52211;DHT22;38179;52.756;6.906;2023-02-03T15:32:36;8.10;99.90
52211;DHT22;38179;52.756;6.906;2023-02-03T15:35:05;8.00;99.90
52211;DHT22;38179;52.756;6.906;2023-02-03T15:37:48;8.00;99.90
52211;DHT22;38179;52.756;6.906;2023-02-03T15:40:18;8.00;99.90
52211;DHT22;38179;52.756;6.906;2023-02-03T15:45:25;8.00;99.90
52211;DHT22;38179;52.756;6.906;2023-02-03T15:48:05;8.00;99.90
52211;DHT22;38179;52.756;6.906;2023-02-03T15:50:46;8.00;99.90
52211;DHT22;38179;52.756;6.906;2023-02-03T15:53:19;8.00;99.90
52211;DHT22;38179;52.756;6.906;2023-02-03T15:55:49;7.90;99.90
52211;DHT22;38179;52.756;6.906;2023-02-03T15:58:23;7.90;99.90
52211;DHT22;38179;52.756;6.906;2023-02-03T16:01:02;7.90;99.90
52211;DHT22;38179;52.756;6.906;2023-02-03T16:03:44;7.90;99.90
52211;DHT22;38179;52.756;6.906;2023-02-03T16:06:35;7.90;99.90
52211;DHT22;38179;52.756;6.906;2023-02-03T16:09:06;7.80;99.90
52211;DHT22;38179;52.756;6.906;2023-02-03T16:11:48;7.80;99.90
52211;DHT22;38179;52.756;6.906;2023-02-03T16:14:31;7.80;99.90
52211;DHT22;38179;52.756;6.906;2023-02-03T16:16:58;7.80;99.90
52211;DHT22;38179;52.756;6.906;2023-02-03T16:19:28;7.70;99.90
52211;DHT22;38179;52.756;6.906;2023-02-03T16:21:56;7.70;99.90
52211;DHT22;38179;52.756;6.906;2023-02-03T16:24:41;7.70;99.90
52211;DHT22;38179;52.756;6.906;2023-02-03T16:29:46;7.70;99.90
52211;DHT22;38179;52.756;6.906;2023-02-03T16:32:31;7.60;99.90
52211;DHT22;38179;52.756;6.906;2023-02-03T16:35:15;7.60;99.90
52211;DHT22;38179;52.756;6.906;2023-02-03T16:38:26;7.60;99.90
52211;DHT22;38179;52.756;6.906;2023-02-03T16:41:15;7.60;99.90
52211;DHT22;38179;52.756;6.906;2023-02-03T16:44:00;7.50;99.90
52211;DHT22;38179;52.756;6.906;2023-02-03T16:46:46;7.50;99.90
52211;DHT22;38179;52.756;6.906;2023-02-03T16:49:31;7.50;99.90
52211;DHT22;38179;52.756;6.906;2023-02-03T16:52:15;7.50;99.90
52211;DHT22;38179;52.756;6.906;2023-02-03T16:54:41;7.50;99.90
52211;DHT22;38179;52.756;6.906;2023-02-03T16:57:07;7.50;99.90
52211;DHT22;38179;52.756;6.906;2023-02-03T16:59:33;7.50;99.90
52211;DHT22;38179;52.756;6.906;2023-02-03T17:01:59;7.40;99.90
52211;DHT22;38179;52.756;6.906;2023-02-03T17:04:25;7.40;99.90
52211;DHT22;38179;52.756;6.906;2023-02-03T17:06:51;7.40;99.90
52211;DHT22;38179;52.756;6.906;2023-02-03T17:09:18;7.40;99.90
52211;DHT22;38179;52.756;6.906;2023-02-03T17:11:50;7.40;99.90
52211;DHT22;38179;52.756;6.906;2023-02-03T17:14:16;7.50;99.90
52211;DHT22;38179;52.756;6.906;2023-02-03T17:16:42;7.40;99.90
52211;DHT22;38179;52.756;6.906;2023-02-03T17:19:11;7.40;99.90
52211;DHT22;38179;52.756;6.906;2023-02-03T17:21:37;7.40;99.90
52211;DHT22;38179;52.756;6.906;2023-02-03T17:24:04;7.40;99.90
52211;DHT22;38179;52.756;6.906;2023-02-03T17:26:30;7.40;99.90
52211;DHT22;38179;52.756;6.906;2023-02-03T17:28:56;7.40;99.90
52211;DHT22;38179;52.756;6.906;2023-02-03T17:31:28;7.40;99.90
52211;DHT22;38179;52.756;6.906;2023-02-03T17:33:54;7.40;99.90
52211;DHT22;38179;52.756;6.906;2023-02-03T17:36:21;7.40;99.90
52211;DHT22;38179;52.756;6.906;2023-02-03T17:38:50;7.40;99.90
52211;DHT22;38179;52.756;6.906;2023-02-03T17:41:20;7.40;99.90
52211;DHT22;38179;52.756;6.906;2023-02-03T17:43:48;7.30;99.90
52211;DHT22;38179;52.756;6.906;2023-02-03T17:46:18;7.40;99.90
52211;DHT22;38179;52.756;6.906;2023-02-03T17:48:45;7.40;99.90
52211;DHT22;38179;52.756;6.906;2023-02-03T17:51:19;7.40;99.90
52211;DHT22;38179;52.756;6.906;2023-02-03T17:53:46;7.40;99.90
52211;DHT22;38179;52.756;6.906;2023-02-03T17:56:18;7.30;99.90
52211;DHT22;38179;52.756;6.906;2023-02-03T17:58:44;7.30;99.90
52211;DHT22;38179;52.756;6.906;2023-02-03T18:01:13;7.30;99.90
52211;DHT22;38179;52.756;6.906;2023-02-03T18:03:46;7.30;99.90
52211;DHT22;38179;52.756;6.906;2023-02-03T18:06:14;7.30;99.90
52211;DHT22;38179;52.756;6.906;2023-02-03T18:08:41;7.20;99.90
52211;DHT22;38179;52.756;6.906;2023-02-03T18:11:08;7.20;99.90
52211;DHT22;38179;52.756;6.906;2023-02-03T18:13:36;7.30;99.90
52211;DHT22;38179;52.756;6.906;2023-02-03T18:16:03;7.20;99.90
52211;DHT22;38179;52.756;6.906;2023-02-03T18:18:30;7.20;99.90
52211;DHT22;38179;52.756;6.906;2023-02-03T18:20:56;7.20;99.90
52211;DHT22;38179;52.756;6.906;2023-02-03T18:23:22;7.20;99.90
52211;DHT22;38179;52.756;6.906;2023-02-03T18:25:52;7.20;99.90
52211;DHT22;38179;52.756;6.906;2023-02-03T18:28:19;7.20;99.90
52211;DHT22;38179;52.756;6.906;2023-02-03T18:30:45;7.10;99.90
52211;DHT22;38179;52.756;6.906;2023-02-03T18:33:11;7.10;99.90
52211;DHT22;38179;52.756;6.906;2023-02-03T18:35:37;7.10;99.90
52211;DHT22;38179;52.756;6.906;2023-02-03T18:38:03;7.10;99.90
52211;DHT22;38179;52.756;6.906;2023-02-03T18:40:29;7.10;99.90
52211;DHT22;38179;52.756;6.906;2023-02-03T18:42:55;7.10;99.90